Taft, TX

11:50 AM CDT on September 23, 2014 (GMT -0500)
North of Aransas Pass | Change Station
CLOSE
Current Station
Personal Weather Station
Location: Aransas Pass, TX
Elevation: 26 ft
Nearby Weather Stations

Elev 26 ft 27.96 °N, 97.13 °W | Updated 44 seconds ago

Clear
Clear
85.5 °F
Feels Like 93 °F
N
11.4
Wind Variable Wind from NE
Gusts 11.4 mph

Today
High -- | Low -- °F
--% Chance of Precip.
Yesterday
High -- | Low -- °F
Precip. -- in
7:17 AM 7:24 PM
Waning Crescent, 0% visible
Pressure 30.10 in
Visibility 10.0 miles
Clouds Clear
Heat Index 93 °F
Dew Point 74 °F
Humidity 68%
Rainfall 0.00 in
Snow Depth Not available.
UV 6 out of 12
Pollen 9.50 out of 12
Air Quality Not available.
Flu Activity Not available.
METAR KRKP 231553Z AUTO 06010KT 10SM CLR 28/21 A3009 RMK AO2 SLP191 T02830206

More Conditions Fewer Conditions

Pressure 30.10 in
Visibility 10.0 miles
Clouds Clear
Heat Index 93 °F
Dew Point 74 °F
Humidity 68%
Rainfall 0.00 in
Snow Depth Not available.
UV 6 out of 12
Pollen 9.50 out of 12
Air Quality Not available.
Flu Activity Not available.
METAR KRKP 231553Z AUTO 06010KT 10SM CLR 28/21 A3009 RMK AO2 SLP191 T02830206

More Conditions Fewer Conditions

10-Day Weather Forecast

Almanac

Astronomy

Sep. 23, 2014 Rise Set
Actual Time 7:17 AM CDT 7:24 PM CDT
Civil Twilight 6:54 AM CDT 7:47 PM CDT
Nautical Twilight 6:27 AM CDT 8:14 PM CDT
Astronomical Twilight 5:59 AM CDT 8:42 PM CDT
Moon 6:44 AM CDT 7:05 PM CDT
Length of Visible Light 12h 53m
Length of Day
12h 06m
Tomorrow will be 1m 39s shorter.
Waning Crescent, 0% of the Moon is Illuminated
Today
Waning Crescent
Sep 24
New
Oct 1
First Quarter
Oct 8
Full
Oct 15
Last Quarter

Today's Extremes

State Highs State Lows

Community

WunderPhotos

Upload Photos

1,755,750 photos uploaded!

WunderBlogs® & News

Nearby

Snow Depth

Station Depth Elevation
No new snow has been reported.

Earthquake Activity

City Distance Mag. Time & Date
No recent earthquake activity has been reported nearby.
Minimum magnitude displayed is 2.5.

Coastal Water Temperatures

Place Temperature
Rockport, TX 84.0 °F
Seadrift, TX 82.0 °F
Port Aransas, TX 82.9 °F

Nearby Weather Stations